Wind From: 20-06-2018 11:00 Until: 22:00 warning for: Wind Level: Yellow info button
suomi:
Tuulivaroitus maa-alueille: Länsituuli on voimakasta keskipäivästä alkaen, tuulen nopeus puuskissa 15 m/s.

svenska:
Vindvarning för landområden: Från och med middagen är den västliga vinden kraftigt, i vindbyarna 15 m/s.

english:
Wind warning for land areas: From noon on, strong winds from west may bring strong gusts of 15 m/s. 


Thunder radar more information blitzortung!


Löydät sääaseman tiedot myös:

European Weather Network

Finland Weather Exchange

Weather Underground

AWEKAS



Weather Underground säähistoriasivu

Päivittäin yhteenveto Maaliskuu 26, 2017 Yksiköt:  Englantilaiset    Metriset   Molemmat
« Edellinen Päivä
Seuraava Päivä »
Päivittäin Viikoittain Kuukausittain Vuosittain Mukautettu
  Korkea: Matala: Keskiarvo:
Lämpötila: TemperatureC °F 0.4 °F 5.9 °F
Kastepiste: DewpointC °F -2.7 °F 0.6 °F
Kosteus: Humidity % 49 % 69 %
Tuulen nopeus: WindSpeedKMH mph 0.0 mph 9 mph
Tuulenpuuska: WindSpeedGustKMH mph - -
Tuuli:- - West
Ilmanpaine: PressurehPa in 1001.9 in -
Sade: 0.0 in    
Historical Graphs
 
 
Taulukkotiedot Maaliskuu 26, 2017
Aika Lämpötila Kastepiste Ilmanpaine Tuuli Tuulen nopeus Tuulenpuuska Kosteus Sademäärä (tunneittain)
TemperatureC °F DewpointC °F PressurehPa in Calm     Humidity % HourlyPrecipMM in
00:00 0.4 °F -1.8 °F 1014.1 in SW 3.2 mph 8.0 mph 85 % 0.0 in
00:15 0.5 °F -1.6 °F 1014.1 in SW 3.2 mph 9.7 mph 86 % 0.0 in
00:30 0.7 °F -1.4 °F 1014.4 in SSW 3.2 mph 8.0 mph 86 % 0.0 in
00:45 0.8 °F -1.5 °F 1014.1 in SSW 4.8 mph 9.7 mph 85 % 0.0 in
01:00 0.7 °F -1.5 °F 1013.8 in SSW 4.8 mph 12.9 mph 85 % 0.0 in
01:15 0.8 °F -1.3 °F 1013.8 in SW 3.2 mph 11.3 mph 86 % 0.0 in
01:30 0.9 °F -1.2 °F 1013.4 in SSW 4.8 mph 12.9 mph 86 % 0.0 in
01:45 1.0 °F -1.2 °F 1013.1 in SSW 4.8 mph 9.7 mph 85 % 0.0 in
02:00 1.0 °F -1.2 °F 1012.4 in SSW 1.6 mph 6.4 mph 85 % 0.0 in
02:15 0.9 °F -1.1 °F 1012.1 in Calm   1.6 mph 86 % 0.0 in
02:30 1.1 °F -1.0 °F 1011.7 in SSW 3.2 mph 11.3 mph 86 % 0.0 in
02:45 1.7 °F -0.6 °F 1011.4 in SSW 6.4 mph 12.9 mph 85 % 0.0 in
04:00 1.8 °F -0.6 °F 1011.1 in SSW 6.4 mph 14.5 mph 84 % 0.0 in
04:15 1.9 °F -0.5 °F 1011.1 in SSW 4.8 mph 12.9 mph 84 % 0.0 in
04:30 2.0 °F -0.4 °F 1010.7 in SSW 3.2 mph 11.3 mph 84 % 0.0 in
04:45 2.2 °F -0.3 °F 1010.7 in SSW 4.8 mph 12.9 mph 84 % 0.0 in
05:00 2.8 °F -0.3 °F 1010.0 in SSW 6.4 mph 14.5 mph 80 % 0.0 in
05:15 3.3 °F -0.3 °F 1009.7 in SSW 8.0 mph 19.3 mph 77 % 0.0 in
05:30 3.5 °F -0.3 °F 1009.0 in SSW 8.0 mph 16.1 mph 76 % 0.0 in
05:45 3.6 °F -0.6 °F 1008.4 in SSW 9.7 mph 22.5 mph 74 % 0.0 in
06:00 3.7 °F -0.7 °F 1008.0 in SSW 9.7 mph 25.7 mph 73 % 0.0 in
06:15 3.5 °F -0.3 °F 1008.0 in SSW 8.0 mph 17.7 mph 76 % 0.0 in
06:30 3.3 °F 0.2 °F 1008.0 in SW 8.0 mph 19.3 mph 80 % 0.0 in
06:45 3.3 °F 0.7 °F 1008.0 in SSW 8.0 mph 17.7 mph 83 % 0.0 in
07:00 3.3 °F 1.0 °F 1007.7 in SSW 8.0 mph 22.5 mph 85 % 0.0 in
07:15 3.3 °F 1.1 °F 1008.0 in SSW 8.0 mph 27.4 mph 85 % 0.0 in
07:30 3.3 °F 1.1 °F 1007.7 in SSW 6.4 mph 19.3 mph 85 % 0.0 in
07:45 3.4 °F 0.9 °F 1007.3 in SSW 8.0 mph 25.7 mph 84 % 0.0 in
08:00 3.3 °F 0.8 °F 1007.0 in SW 8.0 mph 19.3 mph 84 % 0.0 in
08:15 3.2 °F 0.9 °F 1006.7 in SSW 8.0 mph 17.7 mph 85 % 0.0 in
08:30 3.2 °F 0.9 °F 1006.3 in SSW 6.4 mph 14.5 mph 85 % 0.0 in
08:45 3.6 °F 1.1 °F 1006.0 in SSW 6.4 mph 11.3 mph 84 % 0.0 in
09:00 3.9 °F 1.3 °F 1005.6 in SSW 8.0 mph 19.3 mph 83 % 0.0 in
09:45 4.3 °F 1.5 °F 1005.3 in SSW 6.4 mph 14.5 mph 82 % 0.0 in
10:00 4.8 °F 2.0 °F 1005.0 in SSW 6.4 mph 17.7 mph 82 % 0.0 in
10:15 5.7 °F 2.8 °F 1004.6 in SSW 6.4 mph 14.5 mph 82 % 0.0 in
10:30 7.0 °F 4.0 °F 1004.3 in SSW 4.8 mph 17.7 mph 81 % 0.0 in
10:45 8.4 °F 4.8 °F 1003.9 in WSW 3.2 mph 14.5 mph 78 % 0.0 in
11:00 9.4 °F 5.0 °F 1003.9 in West 9.7 mph 24.1 mph 74 % 0.0 in
11:15 9.8 °F 5.0 °F 1003.3 in West 8.0 mph 20.9 mph 72 % 0.0 in
11:30 9.9 °F 4.9 °F 1002.9 in WNW 11.3 mph 24.1 mph 71 % 0.0 in
11:45 10.1 °F 5.1 °F 1002.9 in WNW 12.9 mph 27.4 mph 71 % 0.0 in
12:00 10.2 °F 5.0 °F 1002.9 in WNW 12.9 mph 38.6 mph 70 % 0.0 in
12:15 10.3 °F 4.9 °F 1002.9 in WNW 11.3 mph 37.0 mph 69 % 0.0 in
12:30 10.3 °F 4.8 °F 1002.6 in WNW 14.5 mph 32.2 mph 69 % 0.0 in
12:45 10.6 °F 4.9 °F 1002.3 in WNW 12.9 mph 32.2 mph 68 % 0.0 in
13:00 10.6 °F 4.7 °F 1002.3 in NW 12.9 mph 38.6 mph 67 % 0.0 in
13:15 10.8 °F 4.9 °F 1002.3 in NW 12.9 mph 35.4 mph 67 % 0.0 in
13:30 10.9 °F 4.8 °F 1002.3 in WNW 14.5 mph 48.3 mph 66 % 0.0 in
13:45 10.8 °F 4.9 °F 1002.3 in WNW 11.3 mph 38.6 mph 67 % 0.0 in
14:00 11.1 °F 4.7 °F 1002.3 in NW 12.9 mph 29.0 mph 65 % 0.0 in
14:15 11.1 °F 4.3 °F 1002.3 in NW 19.3 mph 40.2 mph 63 % 0.0 in
14:45 11.3 °F 4.5 °F 1002.3 in WNW 12.9 mph 37.0 mph 63 % 0.0 in
15:00 11.3 °F 4.5 °F 1001.9 in WNW 12.9 mph 33.8 mph 63 % 0.0 in
15:15 11.1 °F 4.3 °F 1002.3 in WNW 9.7 mph 40.2 mph 63 % 0.0 in
15:30 11.1 °F 4.3 °F 1002.3 in NW 11.3 mph 25.7 mph 63 % 0.0 in
15:45 10.9 °F 4.1 °F 1002.3 in WNW 8.0 mph 35.4 mph 63 % 0.0 in
16:00 10.7 °F 3.0 °F 1002.3 in WNW 11.3 mph 24.1 mph 59 % 0.0 in
16:15 10.9 °F 3.0 °F 1002.3 in WNW 11.3 mph 38.6 mph 58 % 0.0 in
16:30 11.0 °F 1.2 °F 1002.3 in NW 11.3 mph 41.8 mph 51 % 0.0 in
16:45 10.8 °F 1.1 °F 1002.6 in NW 14.5 mph 38.6 mph 51 % 0.0 in
17:00 10.8 °F 0.8 °F 1002.6 in NW 12.9 mph 32.2 mph 50 % 0.0 in
17:15 10.7 °F 0.4 °F 1002.6 in NW 14.5 mph 49.9 mph 49 % 0.0 in
17:45 10.0 °F 0.0 °F 1003.6 in NW 12.9 mph 29.0 mph 50 % 0.0 in
18:00 9.4 °F -0.5 °F 1003.6 in NW 14.5 mph 37.0 mph 50 % 0.0 in
18:15 8.8 °F -1.0 °F 1003.9 in NNW 12.9 mph 46.7 mph 50 % 0.0 in
18:30 8.5 °F -1.1 °F 1004.3 in NW 12.9 mph 30.6 mph 51 % 0.0 in
18:45 8.3 °F -1.5 °F 1004.3 in NW 16.1 mph 37.0 mph 50 % 0.0 in
19:00 7.9 °F -1.3 °F 1004.3 in NW 11.3 mph 30.6 mph 52 % 0.0 in
19:15 7.7 °F -1.6 °F 1004.6 in NW 14.5 mph 33.8 mph 52 % 0.0 in
19:30 7.3 °F -1.6 °F 1004.6 in NW 12.9 mph 27.4 mph 53 % 0.0 in
19:45 7.0 °F -2.2 °F 1005.0 in NW 11.3 mph 32.2 mph 52 % 0.0 in
20:00 6.8 °F -2.6 °F 1005.3 in NW 11.3 mph 27.4 mph 51 % 0.0 in
20:15 6.5 °F -2.7 °F 1005.3 in NW 9.7 mph 25.7 mph 52 % 0.0 in
20:30 6.2 °F -2.7 °F 1005.6 in NW 9.7 mph 27.4 mph 53 % 0.0 in
20:45 5.9 °F -2.7 °F 1005.6 in NW 9.7 mph 22.5 mph 54 % 0.0 in
21:00 5.6 °F -2.5 °F 1005.6 in NW 11.3 mph 22.5 mph 56 % 0.0 in
21:15 5.2 °F -2.4 °F 1006.0 in NW 8.0 mph 19.3 mph 58 % 0.0 in
21:30 4.8 °F -2.3 °F 1006.3 in NW 8.0 mph 19.3 mph 60 % 0.0 in
21:45 4.8 °F -2.3 °F 1006.7 in NW 9.7 mph 27.4 mph 60 % 0.0 in
22:00 4.7 °F -2.0 °F 1007.0 in NW 8.0 mph 17.7 mph 62 % 0.0 in
22:15 4.6 °F -2.1 °F 1007.0 in NW 9.7 mph 20.9 mph 62 % 0.0 in
22:30 4.3 °F -1.9 °F 1007.3 in NW 6.4 mph 17.7 mph 64 % 0.0 in
22:45 4.1 °F -2.1 °F 1007.7 in NW 6.4 mph 16.1 mph 64 % 0.0 in
23:00 4.1 °F -2.3 °F 1007.7 in NW 8.0 mph 22.5 mph 63 % 0.0 in
23:15 4.5 °F -2.4 °F 1007.7 in NW 12.9 mph 27.4 mph 61 % 0.0 in
23:30 4.5 °F -2.6 °F 1007.7 in NW 11.3 mph 20.9 mph 60 % 0.0 in
23:45 4.5 °F -2.6 °F 1008.4 in NW 9.7 mph 22.5 mph 60 % 0.0 in
Esan sääasema
Terveisin Weather Underground - 2.75 mb

Alkuperäinen skripti  Jim McMurry - jmcmurry@mwt.net Sovitettu myös templatelle  Wim van der Kuil - Leuven-Template.eu

Laitteet joita käytämme:

Sääasema
Davis VP2

Sääasemaohjelma
Cumulus

Sääaseman tietokone
Asus EeePC

Palveluntarjoaja
Suncomet

Davis VP2

Cumulus

Asus EeePC

Suncomet